Alice, North Dakota
Current Conditions -  °F | °C
As of 7:55 AM on Thursday 30 Oct 2014 (Local Time) from KBAC Reporting Station
Unknown Precip Unknown Precip  
Wind Chill: -3°   Ceiling: 2000
Heat Index:   Visibility: 10mi
Dew Point:   Wind: 16mph
Humidity: 100%   Direction: 20°NNE
Pressure: 30.12"   Gusts: 24mph
Location:  46.7681°N, 97.6777°W
Report Text: KBAC 301255Z AUTO 02014G21KT 10SM UP FEW012 OVC020 02/02 A3012 RMK AO2
Loading
Personal Weather Stations






























Interactive Weather Map
Tropical Storm Tracking
New forecast layout! Learn more

10-Day Weather Forecast

Advertisements
Track Severe Weather on mobile